Terminal Aerodrome Forecast
Issued by NWS

Home | Current Version | Previous Version | Text Only | Print | Product List | Glossary On
Versions: 1 2 3 4 5 6 7 8 9 10 11 12 13 14 15 16 17 18 19 20 21 22 23 24 25 26 27 28 29 30 31 32 33 34 35
000
FTUS43 KPAH 270520
TAFOWB
TAF
KOWB 270520Z 2706/2806 24006KT P6SM VCSH SCT007 BKN035
      TEMPO 2707/2709 BKN007
     FM270900 30009KT P6SM SCT005 BKN007
     FM271500 32011G18KT P6SM BKN015
     FM271900 33011G16KT P6SM BKN035
     FM280000 33003KT P6SM SKC=

USA.gov is the U.S. government's official web portal to all federal, state and local government web resources and services.